Time;durP1;ratioP1;P1;durP2;ratioP2;P2;SDS_P1;SDS_P2;PMS_P1;PMS_P2;Temp;Humidity;BMP_temperature;BMP_pressure;BME280_temperature;BME280_humidity;BME280_pressure;Samples;Min_cycle;Max_cycle;Signal;HPM_P1;HPM_P2
2022/03/06 00:00:40;;;;;;;;;;;;;;;-143.90;100.00;55194.63;2096724;28;20109;-64
2022/03/06 00:02:00;;;;;;;;;;;;;;;-143.90;100.00;55236.31;2097653;28;19927;-63
2022/03/06 00:03:21;;;;;;;;;;;;;;;-143.90;100.00;55168.81;2097762;28;20086;-64
2022/03/06 00:04:42;;;;;;;;;;;;;;;-143.90;100.00;55170.78;2098201;28;20908;-64
2022/03/06 00:06:02;;;;;;;;;;;;;;;-143.90;100.00;55150.94;2096671;28;20366;-64
2022/03/06 00:07:23;;;;;;;;;;;;;;;-143.90;100.00;55166.81;2099328;28;19924;-62
2022/03/06 00:08:44;;;;;;;;;;;;;;;-143.90;100.00;55186.69;2106126;28;20504;-64
2022/03/06 00:10:05;;;;;;;;;;;;;;;-143.90;100.00;55174.75;2101132;28;19927;-64
2022/03/06 00:11:25;;;;;;;;;;;;;;;-143.90;100.00;55198.59;2097497;28;19969;-64
2022/03/06 00:12:46;;;;;;;;;;;;;;;-143.90;100.00;55202.56;2098840;28;20019;-64
2022/03/06 00:14:07;;;;;;;;;;;;;;;-143.90;100.00;55162.84;2098407;28;20443;-64
2022/03/06 00:15:27;;;;;;;;;;;;;;;-143.90;100.00;55168.81;2098574;28;19920;-63
2022/03/06 00:16:48;;;;;;;;;;;;;;;-143.90;100.00;55202.56;2097540;28;19925;-63
2022/03/06 00:18:09;;;;;;;;;;;;;;;-143.90;100.00;55162.84;2097091;28;19920;-63
2022/03/06 00:19:29;;;;;;;;;;;;;;;-143.90;100.00;55198.59;2098077;28;20018;-62
2022/03/06 00:20:50;;;;;;;;;;;;;;;-143.90;100.00;55238.31;2098464;28;19945;-62
2022/03/06 00:22:11;;;;;;;;;;;;;;;-143.90;100.00;55200.56;2098199;28;19928;-62
2022/03/06 00:23:31;;;;;;;;;;;;;;;-143.90;100.00;55202.56;2098334;28;19927;-63
2022/03/06 00:24:56;;;;;;;;;;;;;;;-143.90;100.00;55186.69;2107129;27;20023;-63
2022/03/06 00:26:16;;;;;;;;;;;;;;;-143.90;100.00;55198.59;2099977;28;20545;-63
2022/03/06 00:27:43;;;;;;;;;;;;;;;-143.90;100.00;55210.50;2097387;28;20557;-63
2022/03/06 00:29:04;;;;;;;;;;;;;;;-143.90;100.00;55176.75;2098008;28;19982;-63
2022/03/06 00:30:24;;;;;;;;;;;;;;;-143.90;100.00;55162.84;2097774;28;20470;-63
2022/03/06 00:31:45;;;;;;;;;;;;;;;-143.90;100.00;55202.56;2098354;28;19963;-62
2022/03/06 00:33:06;;;;;;;;;;;;;;;-143.90;100.00;55162.84;2098606;28;19924;-63
2022/03/06 00:34:26;;;;;;;;;;;;;;;-143.90;100.00;55206.53;2097663;28;19920;-63
2022/03/06 00:35:47;;;;;;;;;;;;;;;-143.90;100.00;55186.69;2098132;28;19955;-62
2022/03/06 00:37:08;;;;;;;;;;;;;;;-143.90;100.00;55160.84;2097717;28;20042;-63
2022/03/06 00:38:28;;;;;;;;;;;;;;;-143.90;100.00;55190.66;2097969;28;19920;-62
2022/03/06 00:39:50;;;;;;;;;;;;;;;-143.90;100.00;55182.69;2089885;28;19977;-63
2022/03/06 00:41:11;;;;;;;;;;;;;;;-143.90;100.00;55178.72;2095442;28;20034;-63
2022/03/06 00:42:32;;;;;;;;;;;;;;;-143.90;100.00;55176.75;2097365;28;19920;-63
2022/03/06 00:43:53;;;;;;;;;;;;;;;-143.90;100.00;55178.72;2097899;28;19920;-62
2022/03/06 00:45:13;;;;;;;;;;;;;;;-143.90;100.00;55214.47;2098209;28;19927;-63
2022/03/06 00:46:34;;;;;;;;;;;;;;;-143.90;100.00;55194.63;2097979;28;19931;-63
2022/03/06 00:47:55;;;;;;;;;;;;;;;-143.90;100.00;55166.81;2098469;28;19919;-63
2022/03/06 00:49:15;;;;;;;;;;;;;;;-143.90;100.00;55154.91;2098762;28;19921;-63
2022/03/06 00:50:36;;;;;;;;;;;;;;;-143.90;100.00;55226.38;2097250;28;20291;-62
2022/03/06 00:51:57;;;;;;;;;;;;;;;-143.90;100.00;55168.81;2097831;28;20031;-63
2022/03/06 00:53:17;;;;;;;;;;;;;;;-143.90;100.00;55174.75;2099019;28;19920;-62
2022/03/06 00:54:38;;;;;;;;;;;;;;;-143.90;100.00;55198.59;2096758;28;19921;-62
2022/03/06 00:55:59;;;;;;;;;;;;;;;-143.90;100.00;55206.53;2099171;28;20020;-62
2022/03/06 00:57:19;;;;;;;;;;;;;;;-143.90;100.00;55194.63;2098493;28;19925;-62
2022/03/06 00:58:40;;;;;;;;;;;;;;;-143.90;100.00;55178.72;2096773;28;20029;-63
2022/03/06 01:00:01;;;;;;;;;;;;;;;-143.90;100.00;55182.69;2098201;28;20014;-62
2022/03/06 01:01:24;;;;;;;;;;;;;;;-143.90;100.00;55186.69;2097046;28;19920;-63
2022/03/06 01:02:44;;;;;;;;;;;;;;;-143.90;100.00;55190.66;2097866;28;19920;-62
2022/03/06 01:04:05;;;;;;;;;;;;;;;-143.90;100.00;55170.78;2098293;28;20410;-62
2022/03/06 01:05:26;;;;;;;;;;;;;;;-143.90;100.00;55174.75;2098186;28;19924;-62
2022/03/06 01:06:47;;;;;;;;;;;;;;;-143.90;100.00;55166.81;2088698;28;19925;-62
2022/03/06 01:08:08;;;;;;;;;;;;;;;-143.90;100.00;55178.72;2093084;28;19924;-62
2022/03/06 01:09:28;;;;;;;;;;;;;;;-143.90;100.00;55194.63;2103108;28;19920;-61
2022/03/06 01:10:50;;;;;;;;;;;;;;;-143.90;100.00;55178.72;2101176;27;19935;-62
2022/03/06 01:12:11;;;;;;;;;;;;;;;-143.90;100.00;55180.72;2096214;28;19963;-63
2022/03/06 01:13:32;;;;;;;;;;;;;;;-143.90;100.00;55178.72;2097774;28;19924;-62
2022/03/06 01:14:52;;;;;;;;;;;;;;;-143.90;100.00;55222.41;2094859;28;20711;-62
2022/03/06 01:16:14;;;;;;;;;;;;;;;-143.90;100.00;55158.88;2097732;28;20761;-61
2022/03/06 01:17:35;;;;;;;;;;;;;;;-143.90;100.00;55198.59;2097047;28;19978;-62
2022/03/06 01:18:56;;;;;;;;;;;;;;;-143.90;100.00;55182.69;2098227;28;20458;-62
2022/03/06 01:20:20;;;;;;;;;;;;;;;-143.90;100.00;55166.81;2097800;28;19977;-62
2022/03/06 01:21:40;;;;;;;;;;;;;;;-143.90;100.00;55170.78;2098168;28;19970;-63
2022/03/06 01:23:01;;;;;;;;;;;;;;;-143.90;100.00;55166.81;2097629;28;19924;-62
2022/03/06 01:24:22;;;;;;;;;;;;;;;-143.90;100.00;55158.88;2098689;28;19916;-62
2022/03/06 01:25:42;;;;;;;;;;;;;;;-143.90;100.00;55172.78;2097166;28;19943;-62
2022/03/06 01:27:03;;;;;;;;;;;;;;;-143.90;100.00;55202.56;2103843;28;19931;-62
2022/03/06 01:28:23;;;;;;;;;;;;;;;-143.90;100.00;55210.50;2090704;28;19920;-59
2022/03/06 01:29:44;;;;;;;;;;;;;;;-143.90;100.00;55178.72;2095995;28;19939;-62
2022/03/06 01:31:05;;;;;;;;;;;;;;;-143.90;100.00;55186.69;2097512;28;19924;-61
2022/03/06 01:32:26;;;;;;;;;;;;;;;-143.90;100.00;55212.50;2097143;28;19924;-62
2022/03/06 01:33:46;;;;;;;;;;;;;;;-143.90;100.00;55170.78;2097481;28;19924;-62
2022/03/06 01:35:07;;;;;;;;;;;;;;;-143.90;100.00;55190.66;2096823;28;20005;-62
2022/03/06 01:36:28;;;;;;;;;;;;;;;-143.90;100.00;55172.78;2097250;28;19970;-63
2022/03/06 01:37:49;;;;;;;;;;;;;;;-143.90;100.00;55206.53;2098735;28;21928;-64
2022/03/06 01:39:09;;;;;;;;;;;;;;;-143.90;100.00;55214.47;2093968;28;20599;-63
2022/03/06 01:40:30;;;;;;;;;;;;;;;-143.90;100.00;55194.63;2097730;28;20023;-63
2022/03/06 01:41:51;;;;;;;;;;;;;;;-143.90;100.00;55186.69;2096755;28;19920;-63
2022/03/06 01:43:12;;;;;;;;;;;;;;;-143.90;100.00;55146.97;2098607;28;19920;-62
2022/03/06 01:44:32;;;;;;;;;;;;;;;-143.90;100.00;55196.59;2098296;28;19927;-61
2022/03/06 01:45:53;;;;;;;;;;;;;;;-143.90;100.00;55190.66;2097060;28;19924;-63
2022/03/06 01:47:29;;;;;;;;;;;;;;;-143.90;100.00;55135.03;2096259;28;19923;-63
2022/03/06 01:48:50;;;;;;;;;;;;;;;-143.90;100.00;55162.84;2098235;28;19927;-63
2022/03/06 01:50:20;;;;;;;;;;;;;;;-143.90;100.00;55222.41;2098345;28;19924;-63
2022/03/06 01:51:41;;;;;;;;;;;;;;;-143.90;100.00;55182.69;2097043;28;19923;-63
2022/03/06 01:53:03;;;;;;;;;;;;;;;-143.90;100.00;55186.69;2096884;28;19951;-61
2022/03/06 01:54:24;;;;;;;;;;;;;;;-143.90;100.00;55162.84;2096974;28;19968;-62
2022/03/06 01:55:45;;;;;;;;;;;;;;;-143.90;100.00;55166.81;2097424;28;20026;-61
2022/03/06 01:57:05;;;;;;;;;;;;;;;-143.90;100.00;55196.59;2096654;28;19959;-61
2022/03/06 01:58:26;;;;;;;;;;;;;;;-143.90;100.00;55166.81;2105589;27;19931;-62
2022/03/06 01:59:47;;;;;;;;;;;;;;;-143.90;100.00;55192.63;2099920;28;19927;-63
2022/03/06 02:01:08;;;;;;;;;;;;;;;-143.90;100.00;55202.56;2096430;28;19924;-63
2022/03/06 02:02:29;;;;;;;;;;;;;;;-143.90;100.00;55170.78;2096939;28;19925;-62
2022/03/06 02:03:50;;;;;;;;;;;;;;;-143.90;100.00;55192.63;2095919;28;19927;-63
2022/03/06 02:05:10;;;;;;;;;;;;;;;-143.90;100.00;55210.50;2098054;28;19962;-62
2022/03/06 02:06:31;;;;;;;;;;;;;;;-143.90;100.00;55154.91;2097957;28;20308;-63
2022/03/06 02:07:52;;;;;;;;;;;;;;;-143.90;100.00;55186.69;2095530;28;19920;-63
2022/03/06 02:09:13;;;;;;;;;;;;;;;-143.90;100.00;55168.81;2097574;28;19956;-63
2022/03/06 02:10:34;;;;;;;;;;;;;;;-143.90;100.00;55222.41;2096617;28;19926;-62
2022/03/06 02:13:34;;;;;;;;;;;;;;;-143.90;100.00;55190.66;2095857;28;19919;-62
2022/03/06 02:14:55;;;;;;;;;;;;;;;-143.90;100.00;55220.44;2097386;28;19931;-62
2022/03/06 02:16:16;;;;;;;;;;;;;;;-143.90;100.00;55182.69;2096773;28;19924;-63
2022/03/06 02:17:38;;;;;;;;;;;;;;;-143.90;100.00;55212.50;2096991;28;19924;-65
2022/03/06 02:18:58;;;;;;;;;;;;;;;-143.90;100.00;55210.50;2088105;28;19921;-62
2022/03/06 02:20:20;;;;;;;;;;;;;;;-143.90;100.00;55218.44;2094714;28;20027;-64
2022/03/06 02:21:46;;;;;;;;;;;;;;;-143.90;100.00;55186.69;2104634;28;19963;-61
2022/03/06 02:23:07;;;;;;;;;;;;;;;-143.90;100.00;55178.72;2099053;28;19916;-62
2022/03/06 02:24:28;;;;;;;;;;;;;;;-143.90;100.00;55152.91;2096257;28;19920;-62
2022/03/06 02:25:48;;;;;;;;;;;;;;;-143.90;100.00;55174.75;2097012;28;19978;-62
2022/03/06 02:27:09;;;;;;;;;;;;;;;-143.90;100.00;55230.34;2088206;28;19971;-64
2022/03/06 02:28:30;;;;;;;;;;;;;;;-143.90;100.00;55214.47;2088626;28;20388;-63
2022/03/06 02:29:51;;;;;;;;;;;;;;;-143.90;100.00;55178.72;2089052;28;19920;-63
2022/03/06 02:31:12;;;;;;;;;;;;;;;-143.90;100.00;55204.53;2090050;28;19925;-63
2022/03/06 02:32:33;;;;;;;;;;;;;;;-143.90;100.00;55200.56;2089047;28;19935;-63
2022/03/06 02:33:53;;;;;;;;;;;;;;;-143.90;100.00;55139.03;2080395;28;19921;-63
2022/03/06 02:35:14;;;;;;;;;;;;;;;-143.90;100.00;55202.56;2084536;28;20018;-64
2022/03/06 02:36:36;;;;;;;;;;;;;;;-143.90;100.00;55154.91;2087749;28;19928;-63
2022/03/06 02:37:56;;;;;;;;;;;;;;;-143.90;100.00;55168.81;2079795;28;19924;-63
2022/03/06 02:39:17;;;;;;;;;;;;;;;-143.90;100.00;55194.63;2085052;28;19925;-63
2022/03/06 02:40:41;;;;;;;;;;;;;;;-143.90;100.00;55194.63;2096619;28;19942;-63
2022/03/06 02:42:02;;;;;;;;;;;;;;;-143.90;100.00;55202.56;2090451;28;20752;-63
2022/03/06 02:43:23;;;;;;;;;;;;;;;-143.90;100.00;55168.81;2088581;28;19920;-65
2022/03/06 02:44:44;;;;;;;;;;;;;;;-143.90;100.00;55139.03;2088712;28;19928;-63
2022/03/06 02:46:04;;;;;;;;;;;;;;;-143.90;100.00;55166.81;2089311;28;19927;-63
2022/03/06 02:47:25;;;;;;;;;;;;;;;-143.90;100.00;55160.84;2088088;28;19924;-64
2022/03/06 02:48:46;;;;;;;;;;;;;;;-143.90;100.00;55194.63;2088474;28;19924;-64
2022/03/06 02:50:08;;;;;;;;;;;;;;;-143.90;100.00;55198.59;2088210;28;19931;-63
2022/03/06 02:51:28;;;;;;;;;;;;;;;-143.90;100.00;55210.50;2087246;28;19930;-63
2022/03/06 02:52:49;;;;;;;;;;;;;;;-143.90;100.00;55178.72;2089167;28;20077;-63
2022/03/06 02:54:10;;;;;;;;;;;;;;;-143.90;100.00;55158.88;2087095;28;20272;-63
2022/03/06 02:55:31;;;;;;;;;;;;;;;-143.90;100.00;55198.59;2088371;28;20355;-63
2022/03/06 02:56:52;;;;;;;;;;;;;;;-143.90;100.00;55178.72;2088456;28;19928;-63
2022/03/06 02:58:13;;;;;;;;;;;;;;;-143.90;100.00;55202.56;2088871;28;20032;-64
2022/03/06 02:59:33;;;;;;;;;;;;;;;-143.90;100.00;55214.47;2086938;28;19928;-63
2022/03/06 03:00:54;;;;;;;;;;;;;;;-143.90;100.00;55198.59;2087063;28;19932;-63
2022/03/06 03:02:14;;;;;;;;;;;;;;;-143.90;100.00;55178.72;2087751;28;19925;-63
2022/03/06 03:03:44;;;;;;;;;;;;;;;-143.90;100.00;55178.72;2088332;28;19925;-63
2022/03/06 03:05:05;;;;;;;;;;;;;;;-143.90;100.00;55184.69;2089746;28;20365;-63
2022/03/06 03:06:26;;;;;;;;;;;;;;;-143.90;100.00;55222.41;2097441;28;19989;-64
2022/03/06 03:07:48;;;;;;;;;;;;;;;-143.90;100.00;55180.72;2093847;28;20602;-63
2022/03/06 03:09:09;;;;;;;;;;;;;;;-143.90;100.00;55198.59;2089333;28;20016;-62
2022/03/06 03:10:29;;;;;;;;;;;;;;;-143.90;100.00;55166.81;2090642;28;19927;-64
2022/03/06 03:11:54;;;;;;;;;;;;;;;-143.90;100.00;55208.50;2089791;28;20023;-63
2022/03/06 03:13:15;;;;;;;;;;;;;;;-143.90;100.00;55166.81;2089911;28;20285;-63
2022/03/06 03:14:36;;;;;;;;;;;;;;;-143.90;100.00;55170.78;2090510;28;19920;-64
2022/03/06 03:15:57;;;;;;;;;;;;;;;-143.90;100.00;55198.59;2089991;28;19920;-63
2022/03/06 03:17:18;;;;;;;;;;;;;;;-143.90;100.00;55158.88;2091593;28;20778;-63
2022/03/06 03:18:39;;;;;;;;;;;;;;;-143.90;100.00;55186.69;2089828;28;20392;-63
2022/03/06 03:19:59;;;;;;;;;;;;;;;-143.90;100.00;55184.69;2090314;28;19916;-63
2022/03/06 03:21:20;;;;;;;;;;;;;;;-143.90;100.00;55188.66;2089076;28;19921;-64
2022/03/06 03:22:41;;;;;;;;;;;;;;;-143.90;100.00;55230.34;2090034;28;19921;-63
2022/03/06 03:24:02;;;;;;;;;;;;;;;-143.90;100.00;55174.75;2090440;28;19927;-63
2022/03/06 03:25:23;;;;;;;;;;;;;;;-143.90;100.00;55182.69;2089806;28;19927;-63
2022/03/06 03:26:44;;;;;;;;;;;;;;;-143.90;100.00;55210.50;2094715;28;20473;-64
2022/03/06 03:28:04;;;;;;;;;;;;;;;-143.90;100.00;55182.69;2097017;28;20501;-63
2022/03/06 03:29:25;;;;;;;;;;;;;;;-143.90;100.00;55194.63;2098013;28;19972;-63
2022/03/06 03:30:45;;;;;;;;;;;;;;;-143.90;100.00;55196.59;2098370;28;19927;-63
2022/03/06 03:32:06;;;;;;;;;;;;;;;-143.90;100.00;55186.69;2099517;28;20506;-63
2022/03/06 03:33:27;;;;;;;;;;;;;;;-143.90;100.00;55182.69;2090634;28;20015;-63
2022/03/06 03:34:48;;;;;;;;;;;;;;;-143.90;100.00;55172.78;2095348;28;19920;-63
2022/03/06 03:36:08;;;;;;;;;;;;;;;-143.90;100.00;55186.69;2096742;28;19928;-63
2022/03/06 03:37:29;;;;;;;;;;;;;;;-143.90;100.00;55204.53;2097347;28;20384;-63
2022/03/06 03:38:50;;;;;;;;;;;;;;;-143.90;100.00;55174.75;2098119;28;19926;-63
2022/03/06 03:40:13;;;;;;;;;;;;;;;-143.90;100.00;55174.75;2098229;28;19947;-63
2022/03/06 03:41:34;;;;;;;;;;;;;;;-143.90;100.00;55214.47;2098127;28;19920;-62
2022/03/06 03:42:55;;;;;;;;;;;;;;;-143.90;100.00;55194.63;2097221;28;19982;-63
2022/03/06 03:44:15;;;;;;;;;;;;;;;-143.90;100.00;55127.09;2097976;28;20493;-63
2022/03/06 03:45:37;;;;;;;;;;;;;;;-143.90;100.00;55178.72;2097947;28;19948;-63
2022/03/06 03:46:58;;;;;;;;;;;;;;;-143.90;100.00;55158.88;2096685;28;19920;-65
2022/03/06 03:48:19;;;;;;;;;;;;;;;-143.90;100.00;55198.59;2099310;28;19931;-65
2022/03/06 03:49:40;;;;;;;;;;;;;;;-143.90;100.00;55186.69;2098064;28;19920;-64
2022/03/06 03:51:02;;;;;;;;;;;;;;;-143.90;100.00;55192.63;2105569;28;20470;-63
2022/03/06 03:52:22;;;;;;;;;;;;;;;-143.90;100.00;55168.81;2099676;28;19937;-64
2022/03/06 03:53:43;;;;;;;;;;;;;;;-143.90;100.00;55204.53;2097204;28;19942;-64
2022/03/06 03:55:04;;;;;;;;;;;;;;;-143.90;100.00;55206.53;2098020;28;19920;-64
2022/03/06 03:56:25;;;;;;;;;;;;;;;-143.90;100.00;55170.78;2098512;28;19927;-65
2022/03/06 03:57:45;;;;;;;;;;;;;;;-143.90;100.00;55170.78;2098268;28;19920;-64
2022/03/06 03:59:06;;;;;;;;;;;;;;;-143.90;100.00;55158.88;2098235;28;19916;-64
2022/03/06 04:00:27;;;;;;;;;;;;;;;-143.90;100.00;55192.63;2096798;28;19935;-64
2022/03/06 04:01:47;;;;;;;;;;;;;;;-143.90;100.00;55186.69;2097624;28;19990;-64
2022/03/06 04:03:08;;;;;;;;;;;;;;;-143.90;100.00;55188.66;2097566;28;19977;-64
2022/03/06 04:04:29;;;;;;;;;;;;;;;-143.90;100.00;55178.72;2099025;28;20494;-64
2022/03/06 04:05:50;;;;;;;;;;;;;;;-143.90;100.00;55166.81;2096322;28;20517;-64
2022/03/06 04:07:10;;;;;;;;;;;;;;;-143.90;100.00;55178.72;2098598;28;19920;-65
2022/03/06 04:08:31;;;;;;;;;;;;;;;-143.90;100.00;55210.50;2099552;28;19998;-64
2022/03/06 04:09:52;;;;;;;;;;;;;;;-143.90;100.00;55212.50;2098215;28;19920;-64
2022/03/06 04:11:13;;;;;;;;;;;;;;;-143.90;100.00;55176.75;2089982;28;19944;-64
2022/03/06 04:12:36;;;;;;;;;;;;;;;-143.90;100.00;55182.69;2096402;28;19927;-64
2022/03/06 04:13:57;;;;;;;;;;;;;;;-143.90;100.00;55182.69;2097951;28;19920;-64
2022/03/06 04:15:18;;;;;;;;;;;;;;;-143.90;100.00;55174.75;2097132;28;19920;-64
2022/03/06 04:16:38;;;;;;;;;;;;;;;-143.90;100.00;55210.50;2098408;28;19945;-63
2022/03/06 04:17:59;;;;;;;;;;;;;;;-143.90;100.00;55166.81;2098304;28;19920;-64
2022/03/06 04:19:19;;;;;;;;;;;;;;;-143.90;100.00;55170.78;2097972;28;19924;-64
2022/03/06 04:20:40;;;;;;;;;;;;;;;-143.90;100.00;55186.69;2098565;28;19942;-64
2022/03/06 04:22:01;;;;;;;;;;;;;;;-143.90;100.00;55184.69;2097641;28;19924;-64
2022/03/06 04:23:21;;;;;;;;;;;;;;;-143.90;100.00;55172.78;2097613;28;19931;-64
2022/03/06 04:24:42;;;;;;;;;;;;;;;-143.90;100.00;55196.59;2098398;28;20011;-64
2022/03/06 04:26:22;;;;;;;;;;;;;;;-143.90;100.00;55214.47;2098261;28;19928;-64
2022/03/06 04:27:42;;;;;;;;;;;;;;;-143.90;100.00;55194.63;2096977;28;19920;-64
2022/03/06 04:29:03;;;;;;;;;;;;;;;-143.90;100.00;55168.81;2090771;28;19976;-64
2022/03/06 04:30:25;;;;;;;;;;;;;;;-143.90;100.00;55176.75;2093995;28;20434;-65
2022/03/06 04:31:46;;;;;;;;;;;;;;;-143.90;100.00;55206.53;2097632;28;19924;-64
2022/03/06 04:33:07;;;;;;;;;;;;;;;-143.90;100.00;55186.69;2098209;28;19988;-64
2022/03/06 04:34:27;;;;;;;;;;;;;;;-143.90;100.00;55208.50;2105025;28;19973;-63
2022/03/06 04:35:48;;;;;;;;;;;;;;;-143.90;100.00;55210.50;2100080;28;19955;-64
2022/03/06 04:37:09;;;;;;;;;;;;;;;-143.90;100.00;55176.75;2097945;28;19935;-64
2022/03/06 04:38:30;;;;;;;;;;;;;;;-143.90;100.00;55234.31;2098512;28;19931;-64
2022/03/06 04:39:51;;;;;;;;;;;;;;;-143.90;100.00;55190.66;2097045;28;19920;-64
2022/03/06 04:41:11;;;;;;;;;;;;;;;-143.90;100.00;55180.72;2098350;28;19927;-63
2022/03/06 04:42:32;;;;;;;;;;;;;;;-143.90;100.00;55208.50;2097637;28;20734;-64
2022/03/06 04:43:53;;;;;;;;;;;;;;;-143.90;100.00;55198.59;2097551;28;19931;-64
2022/03/06 04:45:14;;;;;;;;;;;;;;;-143.90;100.00;55166.81;2096826;28;19931;-64
2022/03/06 04:46:34;;;;;;;;;;;;;;;-143.90;100.00;55154.91;2098955;28;20296;-64
2022/03/06 04:47:55;;;;;;;;;;;;;;;-143.90;100.00;55182.69;2098163;28;19924;-64
2022/03/06 04:49:15;;;;;;;;;;;;;;;-143.90;100.00;55162.84;2098072;28;19951;-64
2022/03/06 04:50:36;;;;;;;;;;;;;;;-143.90;100.00;55198.59;2097399;28;19925;-64
2022/03/06 04:51:57;;;;;;;;;;;;;;;-143.90;100.00;55194.63;2089531;28;19928;-63
2022/03/06 04:53:17;;;;;;;;;;;;;;;-143.90;100.00;55202.56;2094695;28;19927;-65
2022/03/06 04:54:38;;;;;;;;;;;;;;;-143.90;100.00;55220.44;2097306;28;19920;-64
2022/03/06 04:55:59;;;;;;;;;;;;;;;-143.90;100.00;55178.72;2097876;28;19954;-70
2022/03/06 04:57:20;;;;;;;;;;;;;;;-143.90;100.00;55170.78;2097338;28;19924;-64
2022/03/06 04:58:40;;;;;;;;;;;;;;;-143.90;100.00;55186.69;2105053;28;19924;-64
2022/03/06 05:00:02;;;;;;;;;;;;;;;-143.90;100.00;55188.66;2092427;28;20031;-65
2022/03/06 05:01:22;;;;;;;;;;;;;;;-143.90;100.00;55186.69;2094561;28;20501;-65
2022/03/06 05:02:43;;;;;;;;;;;;;;;-143.90;100.00;55186.69;2097952;28;19920;-64
2022/03/06 05:04:04;;;;;;;;;;;;;;;-143.90;100.00;55168.81;2098134;28;19926;-64
2022/03/06 05:05:24;;;;;;;;;;;;;;;-143.90;100.00;55182.69;2098048;28;19920;-64
2022/03/06 05:06:45;;;;;;;;;;;;;;;-143.90;100.00;55166.81;2097076;28;19965;-64
2022/03/06 05:08:07;;;;;;;;;;;;;;;-143.90;100.00;55156.88;2098331;28;19920;-64
2022/03/06 05:09:27;;;;;;;;;;;;;;;-143.90;100.00;55186.69;2097532;28;19920;-64
2022/03/06 05:10:48;;;;;;;;;;;;;;;-143.90;100.00;55214.47;2098564;28;20034;-64
2022/03/06 05:12:09;;;;;;;;;;;;;;;-143.90;100.00;55186.69;2097598;28;19928;-64
2022/03/06 05:13:30;;;;;;;;;;;;;;;-143.90;100.00;55186.69;2097178;28;19920;-64
2022/03/06 05:14:50;;;;;;;;;;;;;;;-143.90;100.00;55194.63;2097782;28;20599;-63
2022/03/06 05:16:11;;;;;;;;;;;;;;;-143.90;100.00;55176.75;2098575;28;19921;-64
2022/03/06 05:17:32;;;;;;;;;;;;;;;-143.90;100.00;55200.56;2098118;28;20034;-64
2022/03/06 05:18:53;;;;;;;;;;;;;;;-143.90;100.00;55210.50;2098643;28;19924;-64
2022/03/06 05:20:14;;;;;;;;;;;;;;;-143.90;100.00;55206.53;2098096;28;19969;-65
2022/03/06 05:21:35;;;;;;;;;;;;;;;-143.90;100.00;55210.50;2097692;28;20014;-64
2022/03/06 05:22:56;;;;;;;;;;;;;;;-143.90;100.00;55178.72;2098959;28;20680;-64
2022/03/06 05:24:17;;;;;;;;;;;;;;;-143.90;100.00;55178.72;2096958;28;19985;-64
2022/03/06 05:25:38;;;;;;;;;;;;;;;-143.90;100.00;55204.53;2098361;28;19920;-64
2022/03/06 05:26:58;;;;;;;;;;;;;;;-143.90;100.00;55123.13;2088306;28;19924;-64
2022/03/06 05:28:19;;;;;;;;;;;;;;;-143.90;100.00;55210.50;2089703;28;20023;-64
2022/03/06 05:29:39;;;;;;;;;;;;;;;-143.90;100.00;55178.72;2089266;28;19921;-63
2022/03/06 05:31:00;;;;;;;;;;;;;;;-143.90;100.00;55190.66;2080221;28;19927;-64
2022/03/06 05:32:21;;;;;;;;;;;;;;;-143.90;100.00;55176.75;2085351;28;19925;-64
2022/03/06 05:33:42;;;;;;;;;;;;;;;-143.90;100.00;55174.75;2090039;28;19921;-64
2022/03/06 05:35:02;;;;;;;;;;;;;;;-143.90;100.00;55146.97;2090442;28;19928;-64
2022/03/06 05:36:23;;;;;;;;;;;;;;;-143.90;100.00;55182.69;2089536;28;20047;-70
2022/03/06 05:37:44;;;;;;;;;;;;;;;-143.90;100.00;55194.63;2088983;28;19991;-64
2022/03/06 05:39:04;;;;;;;;;;;;;;;-143.90;100.00;55144.97;2088941;28;19921;-64
2022/03/06 05:40:25;;;;;;;;;;;;;;;-143.90;100.00;55188.66;2089852;28;20406;-64
2022/03/06 05:41:46;;;;;;;;;;;;;;;-143.90;100.00;55166.81;2091700;28;20132;-65
2022/03/06 05:43:06;;;;;;;;;;;;;;;-143.90;100.00;55135.03;2089982;28;20069;-64
2022/03/06 05:44:27;;;;;;;;;;;;;;;-143.90;100.00;55152.91;2088537;28;19955;-63
2022/03/06 05:45:50;;;;;;;;;;;;;;;-143.90;100.00;55150.94;2088713;28;20383;-64
2022/03/06 05:47:11;;;;;;;;;;;;;;;-143.90;100.00;55194.63;2089954;28;19921;-64
2022/03/06 05:48:31;;;;;;;;;;;;;;;-143.90;100.00;55176.75;2089854;28;19920;-64
2022/03/06 05:49:52;;;;;;;;;;;;;;;-143.90;100.00;55170.78;2089864;28;20377;-64
2022/03/06 05:51:12;;;;;;;;;;;;;;;-143.90;100.00;55184.69;2090219;28;19920;-64
2022/03/06 05:52:33;;;;;;;;;;;;;;;-143.90;100.00;55139.03;2089076;28;20538;-64
2022/03/06 05:53:54;;;;;;;;;;;;;;;-143.90;100.00;55168.81;2087226;28;19932;-64
2022/03/06 05:55:14;;;;;;;;;;;;;;;-143.90;100.00;55192.63;2089129;28;19980;-64
2022/03/06 05:56:35;;;;;;;;;;;;;;;-143.90;100.00;55186.69;2096282;28;20003;-64
2022/03/06 05:57:56;;;;;;;;;;;;;;;-143.90;100.00;55194.63;2091087;28;19924;-64
2022/03/06 05:59:17;;;;;;;;;;;;;;;-143.90;100.00;55176.75;2089308;28;19964;-65
2022/03/06 06:00:38;;;;;;;;;;;;;;;-143.90;100.00;55178.72;2088242;28;20051;-64
2022/03/06 06:01:59;;;;;;;;;;;;;;;-143.90;100.00;55198.59;2089767;28;20036;-65
2022/03/06 06:03:20;;;;;;;;;;;;;;;-143.90;100.00;55178.72;2089470;28;19924;-64
2022/03/06 06:04:41;;;;;;;;;;;;;;;-143.90;100.00;55202.56;2090254;28;19921;-64
2022/03/06 06:06:01;;;;;;;;;;;;;;;-143.90;100.00;55198.59;2088960;28;19921;-64
2022/03/06 06:07:25;;;;;;;;;;;;;;;-143.90;100.00;55176.75;2088833;28;20966;-64
2022/03/06 06:08:46;;;;;;;;;;;;;;;-143.90;100.00;55190.66;2088786;28;19927;-64
2022/03/06 06:10:07;;;;;;;;;;;;;;;-143.90;100.00;55180.72;2090424;28;19924;-64
2022/03/06 06:11:27;;;;;;;;;;;;;;;-143.90;100.00;55182.69;2088264;28;19974;-64
2022/03/06 06:12:48;;;;;;;;;;;;;;;-143.90;100.00;55146.97;2090819;28;20003;-64
2022/03/06 06:14:09;;;;;;;;;;;;;;;-143.90;100.00;55184.69;2090567;28;20067;-63
2022/03/06 06:15:30;;;;;;;;;;;;;;;-143.90;100.00;55176.75;2094215;28;19920;-66
2022/03/06 06:16:50;;;;;;;;;;;;;;;-143.90;100.00;55182.69;2083567;28;19925;-65
2022/03/06 06:18:11;;;;;;;;;;;;;;;-143.90;100.00;55182.69;2085386;28;19920;-64
2022/03/06 06:19:32;;;;;;;;;;;;;;;-143.90;100.00;55210.50;2087768;28;19932;-64
2022/03/06 06:20:53;;;;;;;;;;;;;;;-143.90;100.00;55184.69;2090104;28;19928;-64
2022/03/06 06:22:14;;;;;;;;;;;;;;;-143.90;100.00;55127.09;2089873;28;19921;-67
2022/03/06 06:23:34;;;;;;;;;;;;;;;-143.90;100.00;55170.78;2088753;28;20019;-64
2022/03/06 06:24:55;;;;;;;;;;;;;;;-143.90;100.00;55186.69;2089324;28;19920;-66
2022/03/06 06:26:17;;;;;;;;;;;;;;;-143.90;100.00;55190.66;2090905;28;21790;-67
2022/03/06 06:27:39;;;;;;;;;;;;;;;-143.90;100.00;55154.91;2096318;28;20439;-64
2022/03/06 06:29:00;;;;;;;;;;;;;;;-143.90;100.00;55141.00;2097810;28;19920;-64
2022/03/06 06:30:21;;;;;;;;;;;;;;;-143.90;100.00;55174.75;2096701;28;19954;-64
2022/03/06 06:31:42;;;;;;;;;;;;;;;-143.90;100.00;55190.66;2095777;28;19928;-64
2022/03/06 06:33:03;;;;;;;;;;;;;;;-143.90;100.00;55160.84;2098062;28;19924;-65
2022/03/06 06:34:24;;;;;;;;;;;;;;;-143.90;100.00;55150.94;2096030;28;19920;-64
2022/03/06 06:35:46;;;;;;;;;;;;;;;-143.90;100.00;55184.69;2095843;28;19921;-65
2022/03/06 06:37:08;;;;;;;;;;;;;;;-143.90;100.00;55182.69;2096110;28;19979;-63
2022/03/06 06:38:28;;;;;;;;;;;;;;;-143.90;100.00;55190.66;2096898;28;19920;-64
2022/03/06 06:39:49;;;;;;;;;;;;;;;-143.90;100.00;55202.56;2096228;28;20343;-62
2022/03/06 06:41:10;;;;;;;;;;;;;;;-143.90;100.00;55222.41;2095742;28;20511;-64
2022/03/06 06:42:30;;;;;;;;;;;;;;;-143.90;100.00;55194.63;2096842;28;19920;-64
2022/03/06 06:43:52;;;;;;;;;;;;;;;-143.90;100.00;55182.69;2097163;28;19920;-64
2022/03/06 06:45:13;;;;;;;;;;;;;;;-143.90;100.00;55156.88;2096899;28;19975;-64
2022/03/06 06:46:33;;;;;;;;;;;;;;;-143.90;100.00;55198.59;2097406;28;19920;-62
2022/03/06 06:47:54;;;;;;;;;;;;;;;-143.90;100.00;55186.69;2103022;28;19977;-64